首页
METAR-TAF:

METAR-TAF

机场 :

布加勒斯特奥托佩尼-亨利·科安德国际机场

布加勒斯特, 罗马尼亚

纬度: 44-33N, 经度: 026-06E, 海拔: 95米

当前天气观测

该预报发布于14分钟前的08:30 UTC
风速4节,风向东转东南,在东转东北南转南东之间变化
温度 28°C
湿度 42%
气压 1015 hPa
能见度10公里或以上
1500米以下无云,无积雨云

METAR: LROP 140830Z 11004KT 060V150 CAVOK 28/14 Q1015 NOSIG

时间: 11:44 (08:44 UTC)

预报

该预报发布于3小时和44分钟前的05:00 UTC
预报有效从14日的 06点(UTC)到 15日的 06点(UTC)
风速4节,风向多变
能见度10公里或以上
1500米以下无云,无积雨云
成为
从 14日的 10点(UTC)到 14日的 12点(UTC)
风速10节,风向北转东北
成为
从 14日的 16点(UTC)到 14日的 18点(UTC)
风速4节,风向多变

TAF: LROP 140500Z 1406/1506 VRB04KT CAVOK BECMG 1410/1412 03010KT BECMG 1416/1418 VRB04KT

超过4000个机场的气象观测和天气预报(METAR&TAF报告)。

可查询的气象台以黄色和红色小点在地图上表示。

将鼠标移到小点上方,可查看气象台名称。

然后点击查看天气观测和预报。

如需切换地图:点击带黑十字的绿色按钮放大地图;点击带横线的绿色按钮缩小地图;或者点击绿色箭头查看邻近地区的地图。


METAR-TAF: